createdAt,value
2023-04-11T00:02:52.399Z,77.60
2023-04-11T00:05:55.599Z,77.58
2023-04-11T00:08:58.285Z,77.78
2023-04-11T00:12:02.077Z,77.61
2023-04-11T00:15:05.163Z,77.81
2023-04-11T00:18:08.027Z,77.86
2023-04-11T00:21:11.216Z,77.95
2023-04-11T00:24:13.945Z,77.86
2023-04-11T00:27:16.252Z,77.72
2023-04-11T00:30:18.964Z,77.78
2023-04-11T00:33:21.393Z,78.00
2023-04-11T00:36:27.215Z,77.96
2023-04-11T00:39:33.789Z,77.91
2023-04-11T00:42:36.472Z,77.71
2023-04-11T00:45:40.595Z,77.39
2023-04-11T00:48:44.397Z,77.44
2023-04-11T00:51:46.804Z,77.72
2023-04-11T00:54:49.640Z,77.59
2023-04-11T00:57:54.945Z,77.88
2023-04-11T01:00:57.740Z,78.21
2023-04-11T01:04:01.286Z,78.00
2023-04-11T01:07:08.720Z,77.84
2023-04-11T01:10:12.447Z,77.66
2023-04-11T01:13:15.779Z,77.94
2023-04-11T01:16:21.583Z,78.00
2023-04-11T01:19:29.341Z,78.21
2023-04-11T01:22:32.178Z,78.42
2023-04-11T01:25:37.111Z,78.44
2023-04-11T01:28:39.496Z,78.17
2023-04-11T01:31:42.623Z,78.23
2023-04-11T01:34:48.251Z,78.59
2023-04-11T01:37:51.115Z,78.45
2023-04-11T01:40:54.669Z,78.75
2023-04-11T01:43:57.406Z,78.68
2023-04-11T01:47:00.551Z,78.85
2023-04-11T01:50:03.265Z,78.76
2023-04-11T01:53:05.655Z,79.02
2023-04-11T01:56:08.803Z,79.00
2023-04-11T01:59:11.239Z,78.95
2023-04-11T02:02:14.377Z,79.07
2023-04-11T02:05:17.193Z,79.08
2023-04-11T02:08:19.497Z,79.29
2023-04-11T02:11:23.302Z,79.29
2023-04-11T02:14:25.732Z,79.24
2023-04-11T02:17:31.180Z,79.40
2023-04-11T02:20:34.104Z,79.17
2023-04-11T02:23:36.857Z,79.32
2023-04-11T02:26:42.362Z,79.29
2023-04-11T02:29:44.736Z,78.93
2023-04-11T02:32:49.479Z,79.19
2023-04-11T02:35:52.106Z,79.46
2023-04-11T02:38:55.029Z,79.47
2023-04-11T02:41:57.633Z,79.42
2023-04-11T02:45:00.423Z,79.82
2023-04-11T02:48:02.956Z,80.47
2023-04-11T02:51:06.735Z,80.39
2023-04-11T02:54:09.176Z,80.69
2023-04-11T02:57:12.627Z,81.05
2023-04-11T03:00:15.604Z,80.88
2023-04-11T03:03:18.915Z,80.41
2023-04-11T03:06:23.275Z,80.13
2023-04-11T03:09:27.915Z,80.02
2023-04-11T03:12:30.484Z,79.77
2023-04-11T03:15:34.376Z,79.39
2023-04-11T03:18:37.920Z,80.02
2023-04-11T03:21:40.845Z,80.38
2023-04-11T03:24:43.844Z,80.61
2023-04-11T03:27:46.548Z,80.82
2023-04-11T03:30:50.529Z,81.14
2023-04-11T03:33:53.674Z,81.32
2023-04-11T03:36:56.087Z,81.28
2023-04-11T03:39:58.890Z,80.96
2023-04-11T03:43:04.344Z,80.91
2023-04-11T03:46:08.491Z,80.99
2023-04-11T03:49:11.346Z,81.04
2023-04-11T03:52:15.273Z,80.85
2023-04-11T03:55:18.743Z,80.06
2023-04-11T03:58:21.663Z,79.55
2023-04-11T04:01:24.167Z,78.36
2023-04-11T04:04:27.986Z,77.99
2023-04-11T04:07:32.086Z,77.84
2023-04-11T04:10:36.316Z,77.67
2023-04-11T04:13:39.191Z,77.54
2023-04-11T04:16:44.966Z,77.91
2023-04-11T04:19:48.376Z,78.70
2023-04-11T04:22:53.244Z,79.39
2023-04-11T04:25:58.187Z,79.76
2023-04-11T04:29:04.614Z,79.79
2023-04-11T04:32:11.332Z,79.88
2023-04-11T04:35:16.666Z,79.95
2023-04-11T04:38:19.706Z,80.13
2023-04-11T04:41:23.610Z,80.30
2023-04-11T04:44:28.457Z,80.28
2023-04-11T04:47:33.803Z,80.30
2023-04-11T04:50:36.422Z,80.46
2023-04-11T04:53:39.641Z,80.36
2023-04-11T04:56:42.242Z,80.38
2023-04-11T04:59:46.045Z,80.15
2023-04-11T05:02:48.840Z,79.84
2023-04-11T05:05:51.757Z,79.13
2023-04-11T05:08:57.342Z,79.11
2023-04-11T05:12:01.400Z,79.15
2023-04-11T05:15:04.444Z,78.94
2023-04-11T05:18:07.530Z,78.67
2023-04-11T05:21:10.147Z,78.43
2023-04-11T05:24:13.200Z,78.31
2023-04-11T05:27:15.911Z,78.52
2023-04-11T05:30:19.027Z,78.28
2023-04-11T05:33:23.749Z,78.05
2023-04-11T05:36:28.357Z,77.84
2023-04-11T05:39:30.948Z,77.59
2023-04-11T05:42:33.629Z,77.56
2023-04-11T05:45:36.079Z,77.40
2023-04-11T05:48:40.443Z,77.10
2023-04-11T05:51:42.730Z,76.89
2023-04-11T05:54:45.457Z,75.84
2023-04-11T05:57:47.922Z,74.22
2023-04-11T06:00:50.981Z,72.49
2023-04-11T06:03:53.814Z,71.33
2023-04-11T06:06:56.572Z,69.58
2023-04-11T06:09:59.461Z,68.88
2023-04-11T06:13:01.834Z,69.06
2023-04-11T06:16:06.485Z,69.07
2023-04-11T06:19:08.938Z,68.54
2023-04-11T06:22:11.587Z,68.66
2023-04-11T06:25:14.407Z,68.87
2023-04-11T06:28:17.054Z,68.92
2023-04-11T06:31:19.458Z,68.84
2023-04-11T06:34:22.106Z,68.53
2023-04-11T06:37:24.539Z,68.80
2023-04-11T06:40:27.267Z,68.89
2023-04-11T06:43:29.573Z,68.46
2023-04-11T06:46:32.196Z,68.03
2023-04-11T06:49:34.738Z,66.92
2023-04-11T06:52:37.757Z,66.06
2023-04-11T06:55:40.122Z,65.28
2023-04-11T06:58:42.845Z,64.78
2023-04-11T07:01:45.753Z,64.76
2023-04-11T07:04:48.436Z,64.41
2023-04-11T07:07:51.120Z,63.44
2023-04-11T07:10:53.738Z,62.40
2023-04-11T07:13:57.281Z,62.40
2023-04-11T07:17:01.367Z,62.14
2023-04-11T07:20:06.934Z,61.60
2023-04-11T07:23:09.556Z,60.70
2023-04-11T07:26:12.946Z,60.26
2023-04-11T07:29:15.567Z,58.66
2023-04-11T07:32:17.924Z,58.56
2023-04-11T07:35:20.818Z,59.39
2023-04-11T07:38:33.348Z,58.74
2023-04-11T07:41:37.198Z,58.85
2023-04-11T07:44:39.551Z,58.59
2023-04-11T07:47:42.202Z,58.61
2023-04-11T07:50:44.717Z,58.18
2023-04-11T07:53:47.352Z,57.79
2023-04-11T07:56:49.681Z,57.87
2023-04-11T07:59:52.269Z,57.93
2023-04-11T08:02:55.552Z,57.36
2023-04-11T08:05:58.396Z,57.46
2023-04-11T08:09:01.074Z,57.37
2023-04-11T08:12:04.585Z,57.63
2023-04-11T08:15:07.529Z,57.81
2023-04-11T08:18:12.226Z,57.84
2023-04-11T08:21:14.792Z,57.52
2023-04-11T08:24:17.444Z,57.38
2023-04-11T08:27:20.155Z,57.17
2023-04-11T08:30:22.980Z,57.12
2023-04-11T08:33:28.344Z,56.94
2023-04-11T08:36:31.557Z,56.63
2023-04-11T08:39:33.901Z,55.77
2023-04-11T08:42:36.607Z,55.57
2023-04-11T08:45:40.193Z,55.11
2023-04-11T08:48:42.876Z,54.89
2023-04-11T08:51:46.689Z,54.97
2023-04-11T08:54:55.056Z,54.98
2023-04-11T08:57:59.285Z,54.82
2023-04-11T09:01:33.578Z,54.68
2023-04-11T09:04:44.992Z,55.03
2023-04-11T09:07:50.840Z,54.89
2023-04-11T09:11:01.148Z,55.17
2023-04-11T09:14:07.918Z,54.72
2023-04-11T09:17:13.560Z,55.11
2023-04-11T09:20:21.486Z,55.12
2023-04-11T09:23:26.120Z,55.57
2023-04-11T09:26:30.420Z,54.70
2023-04-11T09:29:51.300Z,54.50
2023-04-11T09:32:54.456Z,54.68
2023-04-11T09:35:57.317Z,54.05
2023-04-11T09:39:00.173Z,53.85
2023-04-11T09:42:23.202Z,53.91
2023-04-11T09:45:27.445Z,53.02
2023-04-11T09:48:43.468Z,52.31
2023-04-11T09:51:49.704Z,52.11
2023-04-11T09:54:52.618Z,52.99
2023-04-11T09:57:55.365Z,52.38
2023-04-11T10:00:59.374Z,52.00
2023-04-11T10:04:02.055Z,51.75
2023-04-11T10:07:14.719Z,50.81
2023-04-11T10:10:22.234Z,50.20
2023-04-11T10:13:36.850Z,49.85
2023-04-11T10:17:22.806Z,50.24
2023-04-11T10:20:31.923Z,50.07
2023-04-11T10:24:07.256Z,49.43
2023-04-11T10:27:09.593Z,48.57
2023-04-11T10:30:12.756Z,48.28
2023-04-11T10:33:17.376Z,48.03
2023-04-11T10:36:22.835Z,47.64
2023-04-11T10:39:48.552Z,47.23
2023-04-11T10:42:51.644Z,46.35
2023-04-11T10:46:24.873Z,47.02
2023-04-11T10:49:39.113Z,47.43
2023-04-11T10:52:41.830Z,47.26
2023-04-11T10:55:53.656Z,46.95
2023-04-11T10:58:56.314Z,46.71
2023-04-11T11:02:01.635Z,46.53
2023-04-11T11:05:15.494Z,45.40
2023-04-11T11:08:27.614Z,45.36
2023-04-11T11:11:30.078Z,44.36
2023-04-11T11:14:32.812Z,43.41
2023-04-11T11:17:35.953Z,44.79
2023-04-11T11:20:39.619Z,43.73
2023-04-11T11:23:56.311Z,43.36
2023-04-11T11:26:59.450Z,42.87
2023-04-11T11:30:11.807Z,42.71
2023-04-11T11:33:17.837Z,42.11
2023-04-11T11:36:20.356Z,42.61
2023-04-11T11:39:23.820Z,41.76
2023-04-11T11:42:26.697Z,42.94
2023-04-11T11:45:29.347Z,42.41
2023-04-11T11:48:31.683Z,41.84
2023-04-11T11:51:48.131Z,41.15
2023-04-11T11:54:50.531Z,40.70
2023-04-11T11:57:53.765Z,40.01
2023-04-11T12:00:56.238Z,39.97
2023-04-11T12:03:59.424Z,41.08
2023-04-11T12:07:10.418Z,42.15
2023-04-11T12:10:17.284Z,42.59
2023-04-11T12:13:22.741Z,42.91
2023-04-11T12:16:25.701Z,43.02
2023-04-11T12:19:28.131Z,42.10
2023-04-11T12:22:30.966Z,41.72
2023-04-11T12:25:33.390Z,40.37
2023-04-11T12:28:36.166Z,39.08
2023-04-11T12:31:38.531Z,38.09
2023-04-11T12:34:41.197Z,38.46
2023-04-11T12:37:44.440Z,38.55
2023-04-11T12:40:47.064Z,38.76
2023-04-11T12:43:49.452Z,38.63
2023-04-11T12:46:52.226Z,37.52
2023-04-11T12:49:54.674Z,38.43
2023-04-11T12:52:57.669Z,39.25
2023-04-11T12:56:00.137Z,39.76
2023-04-11T12:59:02.830Z,39.87
2023-04-11T13:02:05.347Z,39.68
2023-04-11T13:05:09.672Z,38.10
2023-04-11T13:08:12.204Z,37.37
2023-04-11T13:11:15.095Z,37.80
2023-04-11T13:14:17.446Z,37.71
2023-04-11T13:17:20.207Z,38.36
2023-04-11T13:20:22.547Z,38.42
2023-04-11T13:23:25.332Z,38.67
2023-04-11T13:26:28.612Z,39.53
2023-04-11T13:29:31.238Z,39.56
2023-04-11T13:32:33.658Z,39.24
2023-04-11T13:35:36.365Z,38.95
2023-04-11T13:38:38.917Z,39.17
2023-04-11T13:41:41.583Z,39.00
2023-04-11T13:44:43.988Z,38.44
2023-04-11T13:47:46.713Z,38.60
2023-04-11T13:50:49.127Z,38.56
2023-04-11T13:53:51.747Z,38.70
2023-04-11T13:56:54.154Z,38.76
2023-04-11T13:59:56.820Z,39.08
2023-04-11T14:02:59.347Z,38.96
2023-04-11T14:06:03.261Z,39.24
2023-04-11T14:09:06.019Z,39.65
2023-04-11T14:12:08.722Z,39.56
2023-04-11T14:15:11.509Z,39.76
2023-04-11T14:18:14.238Z,38.82
2023-04-11T14:21:16.680Z,37.29
2023-04-11T14:24:22.015Z,37.33
2023-04-11T14:27:24.370Z,37.17
2023-04-11T14:30:27.805Z,37.62
2023-04-11T14:33:30.260Z,38.45
2023-04-11T14:36:32.915Z,39.71
2023-04-11T14:39:35.282Z,41.86
2023-04-11T14:42:38.212Z,42.82
2023-04-11T14:45:40.967Z,44.20
2023-04-11T14:48:43.600Z,45.14
2023-04-11T14:51:45.899Z,45.53
2023-04-11T14:54:48.917Z,46.12
2023-04-11T14:57:55.975Z,46.96
2023-04-11T15:00:58.609Z,48.17
2023-04-11T15:04:01.461Z,49.01
2023-04-11T15:07:04.881Z,49.26
2023-04-11T15:10:07.979Z,50.47
2023-04-11T15:13:11.970Z,51.05
2023-04-11T15:16:14.427Z,51.55
2023-04-11T15:19:17.073Z,53.88
2023-04-11T15:22:19.357Z,54.75
2023-04-11T15:25:22.540Z,57.59
2023-04-11T15:28:26.979Z,62.19
2023-04-11T15:31:30.733Z,63.97
2023-04-11T15:34:33.075Z,69.41
2023-04-11T15:37:35.697Z,71.50
2023-04-11T15:40:38.034Z,72.32
2023-04-11T15:43:40.712Z,72.55
2023-04-11T15:46:43.054Z,73.34
2023-04-11T15:49:46.053Z,73.26
2023-04-11T15:52:48.371Z,74.01
2023-04-11T15:55:51.394Z,74.31
2023-04-11T15:58:53.721Z,75.21
2023-04-11T16:01:56.816Z,75.87
2023-04-11T16:05:01.367Z,76.53
2023-04-11T16:08:04.766Z,76.54
2023-04-11T16:11:07.368Z,76.40
2023-04-11T16:14:11.157Z,76.29
2023-04-11T16:17:19.059Z,76.07
2023-04-11T16:20:21.618Z,76.60
2023-04-11T16:23:24.700Z,75.72
2023-04-11T16:26:27.241Z,76.05
2023-04-11T16:29:30.424Z,76.26
2023-04-11T16:32:32.871Z,74.59
2023-04-11T16:35:35.976Z,75.51
2023-04-11T16:38:38.292Z,74.37
2023-04-11T16:41:41.161Z,74.39
2023-04-11T16:44:43.554Z,74.51
2023-04-11T16:47:46.242Z,74.50
2023-04-11T16:50:48.760Z,74.23
2023-04-11T16:53:53.226Z,74.56
2023-04-11T16:56:55.792Z,74.87
2023-04-11T16:59:58.422Z,73.81
2023-04-11T17:03:00.958Z,74.06
2023-04-11T17:06:04.040Z,73.36
2023-04-11T17:09:06.709Z,73.15
2023-04-11T17:12:09.352Z,72.74
2023-04-11T17:15:12.220Z,72.66
2023-04-11T17:18:15.056Z,73.15
2023-04-11T17:21:17.736Z,71.95
2023-04-11T17:24:20.443Z,72.30
2023-04-11T17:27:23.190Z,72.35
2023-04-11T17:30:26.071Z,72.75
2023-04-11T17:33:28.571Z,73.00
2023-04-11T17:36:31.267Z,72.19
2023-04-11T17:39:33.687Z,72.72
2023-04-11T17:42:36.297Z,72.33
2023-04-11T17:45:38.672Z,72.55
2023-04-11T17:48:42.081Z,73.06
2023-04-11T17:51:52.466Z,72.17
2023-04-11T17:55:01.067Z,72.76
2023-04-11T17:58:03.553Z,72.60
2023-04-11T18:01:09.153Z,72.77
2023-04-11T18:04:14.385Z,74.02
2023-04-11T18:07:18.295Z,73.25
2023-04-11T18:10:22.024Z,73.82
2023-04-11T18:13:24.646Z,72.90
2023-04-11T18:16:27.367Z,72.55
2023-04-11T18:19:29.756Z,72.57
2023-04-11T18:22:32.349Z,72.65
2023-04-11T18:25:35.280Z,73.03
2023-04-11T18:28:38.017Z,73.26
2023-04-11T18:31:40.436Z,73.53
2023-04-11T18:34:43.169Z,74.06
2023-04-11T18:37:46.121Z,73.96
2023-04-11T18:40:49.021Z,74.38
2023-04-11T18:43:51.476Z,75.09
2023-04-11T18:46:56.131Z,74.66
2023-04-11T18:50:00.207Z,74.78
2023-04-11T18:53:05.614Z,74.72
2023-04-11T18:56:09.008Z,74.55
2023-04-11T18:59:14.272Z,74.16
2023-04-11T19:02:18.705Z,74.73
2023-04-11T19:05:25.131Z,74.70
2023-04-11T19:08:28.032Z,74.71
2023-04-11T19:11:31.176Z,74.52
2023-04-11T19:14:34.442Z,74.36
2023-04-11T19:17:38.607Z,74.53
2023-04-11T19:20:41.900Z,74.13
2023-04-11T19:23:44.668Z,74.17
2023-04-11T19:26:47.117Z,74.54
2023-04-11T19:29:49.718Z,74.51
2023-04-11T19:32:52.220Z,74.05
2023-04-11T19:35:55.029Z,74.18
2023-04-11T19:38:57.408Z,73.66
2023-04-11T19:42:00.001Z,73.28
2023-04-11T19:45:06.484Z,72.80
2023-04-11T19:48:09.155Z,72.55
2023-04-11T19:51:12.038Z,72.60
2023-04-11T19:54:14.694Z,72.33
2023-04-11T19:57:17.347Z,71.96
2023-04-11T20:00:20.089Z,71.68
2023-04-11T20:03:23.138Z,71.64
2023-04-11T20:06:27.157Z,71.34
2023-04-11T20:09:29.868Z,71.25
2023-04-11T20:12:32.929Z,71.59
2023-04-11T20:15:35.831Z,70.96
2023-04-11T20:18:38.277Z,71.60
2023-04-11T20:21:40.999Z,71.25
2023-04-11T20:24:43.487Z,71.21
2023-04-11T20:27:46.298Z,71.05
2023-04-11T20:30:48.617Z,70.85
2023-04-11T20:33:51.302Z,70.80
2023-04-11T20:36:53.675Z,70.90
2023-04-11T20:39:59.237Z,71.17
2023-04-11T20:43:02.386Z,71.46
2023-04-11T20:46:08.464Z,71.45
2023-04-11T20:49:10.936Z,71.36
2023-04-11T20:52:13.602Z,71.67
2023-04-11T20:55:16.024Z,71.57
2023-04-11T20:58:20.872Z,71.54
2023-04-11T21:01:23.312Z,71.19
2023-04-11T21:04:26.175Z,70.72
2023-04-11T21:07:28.814Z,70.91
2023-04-11T21:10:31.558Z,71.06
2023-04-11T21:13:34.038Z,70.99
2023-04-11T21:16:36.640Z,71.29
2023-04-11T21:19:39.485Z,70.78
2023-04-11T21:22:42.202Z,70.62
2023-04-11T21:25:44.687Z,69.91
2023-04-11T21:28:47.470Z,69.89
2023-04-11T21:31:49.905Z,68.60
2023-04-11T21:34:52.657Z,69.08
2023-04-11T21:37:54.981Z,69.12
2023-04-11T21:40:58.082Z,69.50
2023-04-11T21:44:00.836Z,70.08
2023-04-11T21:47:04.223Z,70.46
2023-04-11T21:50:07.342Z,70.66
2023-04-11T21:53:10.219Z,71.16
2023-04-11T21:56:12.694Z,70.16
2023-04-11T21:59:15.437Z,70.30
2023-04-11T22:02:17.896Z,70.36
2023-04-11T22:05:21.693Z,70.26
2023-04-11T22:08:29.419Z,71.38
2023-04-11T22:11:32.652Z,71.79
2023-04-11T22:14:38.236Z,71.81
2023-04-11T22:17:42.682Z,71.80
2023-04-11T22:20:45.411Z,72.25
2023-04-11T22:23:54.245Z,72.89
2023-04-11T22:27:04.254Z,73.05
2023-04-11T22:30:08.792Z,72.76
2023-04-11T22:33:13.848Z,73.07
2023-04-11T22:36:17.018Z,73.46
2023-04-11T22:39:20.224Z,73.85
2023-04-11T22:42:22.837Z,73.49
2023-04-11T22:45:25.559Z,73.94
2023-04-11T22:48:30.050Z,74.11
2023-04-11T22:51:32.829Z,73.82
2023-04-11T22:54:35.496Z,73.54
2023-04-11T22:57:38.911Z,73.50
2023-04-11T23:00:43.806Z,73.51
2023-04-11T23:03:46.355Z,73.19
2023-04-11T23:06:50.158Z,73.05
2023-04-11T23:09:56.334Z,73.19
2023-04-11T23:12:58.952Z,72.99
2023-04-11T23:16:01.511Z,73.00
2023-04-11T23:19:04.262Z,73.02
2023-04-11T23:22:06.694Z,72.91
2023-04-11T23:25:14.068Z,72.61
2023-04-11T23:28:16.653Z,72.80
2023-04-11T23:31:19.486Z,73.03
2023-04-11T23:34:22.161Z,73.27
2023-04-11T23:37:27.272Z,72.86
2023-04-11T23:40:30.542Z,72.82
2023-04-11T23:43:33.256Z,72.98
2023-04-11T23:46:35.730Z,73.20
2023-04-11T23:49:38.557Z,73.30
2023-04-11T23:52:40.889Z,73.33
2023-04-11T23:55:43.904Z,73.67
2023-04-11T23:58:46.303Z,73.84
